Estación de El Tambo INIA
Ultimos registro cada 15 minutos 33
| N° | Estación | Fecha / Hora | Temperatura | Humedad | Lluvia | Velocidad | Dirección | Radiación | Presion |
| 33 | El Tambo INIA | 10-05-2026 08:00 | 6,5 | 87,3 | 0 | 2,8 | 76 | 31 | 986 |
| 32 | El Tambo INIA | 10-05-2026 07:45 | 6,3 | 89,5 | 0 | 2,7 | 74 | 6 | 985 |
| 31 | El Tambo INIA | 10-05-2026 07:30 | 6,4 | 89,1 | 0 | 3,1 | 77 | 2 | 985 |
| 30 | El Tambo INIA | 10-05-2026 07:15 | 6,4 | 90,1 | 0 | 2,9 | 69 | 0 | 985 |
| 29 | El Tambo INIA | 10-05-2026 07:00 | 6,5 | 90,1 | 0 | 2,8 | 74 | 0 | 985 |
| 28 | El Tambo INIA | 10-05-2026 06:45 | 6,3 | 90,1 | 0 | 2,8 | 79 | 0 | 985 |
| 27 | El Tambo INIA | 10-05-2026 06:30 | 6,2 | 90,3 | 0 | 2,1 | 64 | 0 | 985 |
| 26 | El Tambo INIA | 10-05-2026 06:15 | 6,5 | 89,7 | 0 | 2 | 77 | 0 | 985 |
| 25 | El Tambo INIA | 10-05-2026 06:00 | 6,9 | 89,3 | 0 | 2,5 | 78 | 0 | 985 |
| 24 | El Tambo INIA | 10-05-2026 05:45 | 6,9 | 88,9 | 0 | 2,8 | 72 | 0 | 985 |
| 23 | El Tambo INIA | 10-05-2026 05:30 | 7,1 | 88 | 0 | 3,1 | 73 | 0 | 985 |
| 22 | El Tambo INIA | 10-05-2026 05:15 | 7,1 | 87,9 | 0 | 2,4 | 76 | 0 | 985 |
| 21 | El Tambo INIA | 10-05-2026 05:00 | 7,3 | 87,7 | 0 | 2,7 | 76 | 0 | 985 |
| 20 | El Tambo INIA | 10-05-2026 04:45 | 7,5 | 86,3 | 0 | 2,6 | 82 | 0 | 985 |
| 19 | El Tambo INIA | 10-05-2026 04:30 | 7,3 | 85,2 | 0 | 2,4 | 77 | 0 | 985 |
| 18 | El Tambo INIA | 10-05-2026 04:15 | 7,5 | 86,6 | 0 | 2,3 | 67 | 0 | 985 |
| 17 | El Tambo INIA | 10-05-2026 04:00 | 7,3 | 85,5 | 0 | 2,9 | 66 | 0 | 985 |
| 16 | El Tambo INIA | 10-05-2026 03:45 | 7,2 | 86,4 | 0 | 2,6 | 62 | 0 | 985 |
| 15 | El Tambo INIA | 10-05-2026 03:30 | 7,7 | 84,5 | 0 | 2,6 | 68 | 0 | 985 |
| 14 | El Tambo INIA | 10-05-2026 03:15 | 7,8 | 83,6 | 0 | 3,1 | 70 | 0 | 985 |
| 13 | El Tambo INIA | 10-05-2026 03:00 | 7,9 | 83,7 | 0 | 3,1 | 66 | 0 | 986 |
| 12 | El Tambo INIA | 10-05-2026 02:45 | 8,3 | 81,8 | 0 | 2,6 | 70 | 0 | 986 |
| 11 | El Tambo INIA | 10-05-2026 02:30 | 8,3 | 81,4 | 0 | 2,6 | 70 | 0 | 986 |
| 10 | El Tambo INIA | 10-05-2026 02:15 | 8 | 83,7 | 0 | 1,7 | 59 | 0 | 986 |
| 9 | El Tambo INIA | 10-05-2026 02:00 | 8 | 83,7 | 0 | 2,1 | 64 | 0 | 986 |
| 8 | El Tambo INIA | 10-05-2026 01:45 | 8,4 | 83,1 | 0 | 1,7 | 59 | 0 | 986 |
| 7 | El Tambo INIA | 10-05-2026 01:30 | 9 | 80,1 | 0 | 2,1 | 72 | 0 | 986 |
| 6 | El Tambo INIA | 10-05-2026 01:15 | 9,3 | 77,4 | 0 | 2,4 | 80 | 0 | 986 |
| 5 | El Tambo INIA | 10-05-2026 01:00 | 9,6 | 76 | 0 | 3 | 80 | 0 | 986 |
| 4 | El Tambo INIA | 10-05-2026 00:45 | 9,5 | 75,1 | 0 | 2,3 | 85 | 0 | 986 |
| 3 | El Tambo INIA | 10-05-2026 00:30 | 9,7 | 75,5 | 0 | 2,6 | 79 | 0 | 986 |
| 2 | El Tambo INIA | 10-05-2026 00:15 | 9,9 | 74,2 | 0 | 3 | 82 | 0 | 986 |
| 1 | El Tambo INIA | 10-05-2026 00:00 | 10,3 | 72,8 | 0 | 3,1 | 84 | 0 | 986 |